Time;durP1;ratioP1;P1;durP2;ratioP2;P2;SDS_P1;SDS_P2;PMS_P1;PMS_P2;Temp;Humidity;BMP_temperature;BMP_pressure;BME280_temperature;BME280_humidity;BME280_pressure;Samples;Min_cycle;Max_cycle;Signal;HPM_P1;HPM_P2
2022/05/28 00:01:59;;;;;;;0.60;0.10;;;15.10;99.90;;;;;;5052694;28;20446;-70
2022/05/28 00:04:28;;;;;;;0.60;0.10;;;15.20;99.90;;;;;;5052905;28;20440;-69
2022/05/28 00:06:56;;;;;;;0.60;0.10;;;15.20;99.90;;;;;;5052572;28;20452;-69
2022/05/28 00:09:24;;;;;;;0.60;0.10;;;;;;;;;;5052572;28;20489;-69
2022/05/28 00:11:52;;;;;;;0.60;0.10;;;15.10;99.90;;;;;;5053072;28;20446;-69
2022/05/28 00:14:20;;;;;;;0.60;0.10;;;15.10;99.90;;;;;;5053017;28;20537;-69
2022/05/28 00:16:48;;;;;;;0.60;0.10;;;15.10;99.90;;;;;;5052388;28;20455;-69
2022/05/28 00:19:16;;;;;;;0.60;0.10;;;15.10;99.90;;;;;;5052643;28;20481;-69
2022/05/28 00:21:46;;;;;;;0.60;0.10;;;15.00;99.90;;;;;;5052615;28;20473;-70
2022/05/28 00:24:13;;;;;;;0.60;0.20;;;15.10;99.90;;;;;;5052368;28;20449;-70
2022/05/28 00:26:43;;;;;;;0.60;0.10;;;15.00;99.90;;;;;;5052139;28;20450;-69
2022/05/28 00:29:11;;;;;;;0.60;0.10;;;15.00;99.90;;;;;;5051882;28;20494;-69
2022/05/28 00:31:39;;;;;;;0.60;0.10;;;14.90;99.90;;;;;;5052859;28;20444;-70
2022/05/28 00:34:07;;;;;;;0.60;0.10;;;14.90;99.90;;;;;;5051944;28;20443;-69
2022/05/28 00:36:35;;;;;;;0.60;0.10;;;14.90;99.90;;;;;;5051448;28;20452;-69
2022/05/28 00:39:04;;;;;;;0.60;0.20;;;14.90;99.90;;;;;;5039104;28;20485;-70
2022/05/28 00:41:34;;;;;;;0.60;0.10;;;14.90;99.90;;;;;;5032138;28;20564;-72
2022/05/28 00:44:05;;;;;;;0.60;0.10;;;14.90;99.90;;;;;;5031722;28;20936;-71
2022/05/28 00:46:33;;;;;;;0.60;0.10;;;14.80;99.90;;;;;;5031611;28;20449;-69
2022/05/28 00:49:04;;;;;;;0.60;0.20;;;14.80;99.90;;;;;;5043593;28;20473;-70
2022/05/28 00:51:40;;;;;;;0.60;0.10;;;14.90;99.90;;;;;;5052074;28;20446;-69
2022/05/28 00:54:11;;;;;;;0.60;0.10;;;14.90;99.90;;;;;;5051655;28;20445;-71
2022/05/28 00:56:39;;;;;;;0.60;0.10;;;14.80;99.90;;;;;;5051144;28;20476;-71
2022/05/28 00:59:07;;;;;;;0.60;0.10;;;14.80;99.90;;;;;;5037552;28;20497;-70
2022/05/28 01:01:37;;;;;;;0.60;0.10;;;14.80;99.90;;;;;;5031198;28;20472;-69
2022/05/28 01:04:15;;;;;;;0.60;0.10;;;14.80;99.90;;;;;;5031294;28;20762;-69
2022/05/28 01:06:50;;;;;;;0.60;0.10;;;14.80;99.90;;;;;;5031266;28;20446;-71
2022/05/28 01:09:25;;;;;;;0.60;0.20;;;14.70;99.90;;;;;;5043933;28;20474;-68
2022/05/28 01:12:04;;;;;;;0.60;0.10;;;14.60;99.90;;;;;;5051764;28;20461;-70
2022/05/28 01:14:37;;;;;;;0.60;0.10;;;14.60;99.90;;;;;;5051094;28;20441;-68
2022/05/28 01:17:11;;;;;;;0.60;0.10;;;14.60;99.90;;;;;;5051809;28;20451;-68
2022/05/28 01:19:49;;;;;;;0.60;0.10;;;14.30;99.90;;;;;;5034534;28;20490;-69
2022/05/28 01:22:23;;;;;;;0.60;0.20;;;14.30;99.90;;;;;;5031603;28;20442;-69
2022/05/28 01:25:00;;;;;;;0.60;0.20;;;14.10;99.90;;;;;;5030876;28;20443;-69
2022/05/28 01:27:35;;;;;;;0.60;0.10;;;14.10;99.90;;;;;;5042156;28;20442;-68
2022/05/28 01:30:08;;;;;;;0.60;0.10;;;14.10;99.90;;;;;;5030881;28;20787;-68
2022/05/28 01:32:37;;;;;;;0.60;0.10;;;14.00;99.90;;;;;;5031567;28;20813;-70
2022/05/28 01:35:08;;;;;;;0.60;0.10;;;14.00;99.90;;;;;;5031043;28;20447;-69
2022/05/28 01:37:37;;;;;;;0.60;0.10;;;14.00;99.90;;;;;;5030471;28;20894;-70
2022/05/28 01:40:09;;;;;;;0.60;0.10;;;13.90;99.90;;;;;;5031142;28;20483;-69
2022/05/28 01:42:43;;;;;;;0.60;0.10;;;13.90;99.90;;;;;;5031306;28;20531;-69
2022/05/28 01:45:13;;;;;;;0.60;0.10;;;13.90;99.90;;;;;;5030517;28;20442;-69
2022/05/28 01:47:43;;;;;;;0.60;0.10;;;;;;;;;;5030411;28;20444;-69
2022/05/28 01:50:13;;;;;;;0.60;0.10;;;13.70;99.90;;;;;;5030820;28;20439;-69
2022/05/28 01:52:43;;;;;;;0.60;0.30;;;13.60;99.90;;;;;;5030687;28;20454;-69
2022/05/28 01:55:13;;;;;;;0.80;0.43;;;13.50;99.90;;;;;;5030862;28;20469;-69
2022/05/28 01:57:43;;;;;;;0.60;0.10;;;;;;;;;;5030398;28;20443;-68
2022/05/28 02:00:12;;;;;;;0.60;0.10;;;13.30;99.90;;;;;;5030944;28;20486;-69
2022/05/28 02:02:40;;;;;;;0.60;0.10;;;13.30;99.90;;;;;;5049544;28;20473;-68
2022/05/28 02:05:08;;;;;;;0.60;0.10;;;13.30;99.90;;;;;;5050471;28;20462;-70
2022/05/28 02:07:36;;;;;;;0.60;0.10;;;13.40;99.90;;;;;;5050206;28;21175;-69
2022/05/28 02:10:08;;;;;;;0.60;0.10;;;13.40;99.90;;;;;;5050836;28;20459;-68
2022/05/28 02:12:47;;;;;;;0.60;0.20;;;13.30;99.90;;;;;;5050053;28;20449;-70
2022/05/28 02:15:25;;;;;;;0.60;0.10;;;13.20;99.90;;;;;;5050861;28;20442;-70
2022/05/28 02:17:57;;;;;;;0.60;0.20;;;13.00;99.90;;;;;;5050711;28;20446;-69
2022/05/28 02:20:34;;;;;;;0.60;0.10;;;13.00;99.90;;;;;;5051108;28;20881;-69
2022/05/28 02:23:24;;;;;;;0.60;0.20;;;12.90;99.90;;;;;;5030995;28;20499;-69
2022/05/28 02:25:57;;;;;;;1.47;1.37;;;12.80;99.90;;;;;;5030480;28;20931;-69
2022/05/28 02:28:29;;;;;;;1.10;0.50;;;12.70;99.90;;;;;;5049470;28;20833;-69
2022/05/28 02:31:03;;;;;;;0.60;0.20;;;12.70;99.90;;;;;;5050092;28;20453;-69
2022/05/28 02:33:32;;;;;;;0.60;0.10;;;12.70;99.90;;;;;;5030189;28;20841;-70
2022/05/28 02:36:00;;;;;;;0.60;0.10;;;12.70;99.90;;;;;;5030543;28;20463;-70
2022/05/28 02:38:29;;;;;;;0.60;0.20;;;12.70;99.90;;;;;;5030364;28;20471;-69
2022/05/28 02:40:57;;;;;;;1.53;1.43;;;12.70;99.90;;;;;;5034799;28;21045;-69
2022/05/28 02:43:25;;;;;;;0.60;0.10;;;12.70;99.90;;;;;;5054739;28;20537;-69
2022/05/28 02:45:54;;;;;;;0.70;0.60;;;12.70;99.90;;;;;;5055300;28;20443;-69
2022/05/28 02:48:22;;;;;;;0.60;0.20;;;12.60;99.90;;;;;;5054610;28;20466;-69
2022/05/28 02:50:50;;;;;;;0.60;0.10;;;12.60;99.90;;;;;;5052590;28;20458;-70
2022/05/28 02:53:18;;;;;;;0.60;0.10;;;12.60;99.90;;;;;;5034937;28;20447;-68
2022/05/28 02:55:45;;;;;;;0.60;0.10;;;12.70;99.90;;;;;;5034379;28;20449;-69
2022/05/28 02:58:13;;;;;;;0.60;0.10;;;12.70;99.90;;;;;;5033619;28;20577;-69
2022/05/28 03:00:42;;;;;;;0.60;0.30;;;12.60;99.90;;;;;;5034564;28;20495;-70
2022/05/28 03:03:11;;;;;;;0.60;0.20;;;12.50;99.90;;;;;;5053661;28;20448;-70
2022/05/28 03:05:39;;;;;;;0.60;0.10;;;12.30;99.90;;;;;;5053302;28;20442;-69
2022/05/28 03:08:07;;;;;;;1.23;0.60;;;12.30;99.90;;;;;;5052961;28;20462;-69
2022/05/28 03:10:34;;;;;;;0.70;0.40;;;12.30;99.90;;;;;;5053277;28;20442;-69
2022/05/28 03:13:02;;;;;;;0.60;0.10;;;12.30;99.90;;;;;;5033992;28;20534;-70
2022/05/28 03:15:30;;;;;;;5.80;0.67;;;12.30;99.90;;;;;;5033611;28;20444;-68
2022/05/28 03:17:59;;;;;;;0.60;0.20;;;12.30;99.90;;;;;;5033209;28;20454;-68
2022/05/28 03:20:29;;;;;;;0.60;0.10;;;12.30;99.90;;;;;;5033557;28;20571;-69
2022/05/28 03:22:57;;;;;;;0.60;0.10;;;12.40;99.90;;;;;;5052067;28;20447;-69
2022/05/28 03:25:26;;;;;;;0.60;0.20;;;12.40;99.90;;;;;;5053337;28;20502;-68
2022/05/28 03:27:53;;;;;;;0.60;0.20;;;12.50;99.90;;;;;;5053160;28;20449;-68
2022/05/28 03:30:21;;;;;;;0.60;0.10;;;12.50;99.90;;;;;;5053552;28;20450;-68
2022/05/28 03:32:49;;;;;;;0.60;0.10;;;12.50;99.90;;;;;;5052635;28;20452;-69
2022/05/28 03:35:17;;;;;;;0.60;0.10;;;12.50;99.90;;;;;;5052440;28;20448;-71
2022/05/28 03:37:47;;;;;;;0.80;0.63;;;12.60;99.90;;;;;;5051901;28;20494;-68
2022/05/28 03:40:15;;;;;;;0.60;0.10;;;12.60;99.90;;;;;;5052998;28;20447;-69
2022/05/28 03:42:43;;;;;;;0.60;0.10;;;12.60;99.90;;;;;;5036584;28;20451;-69
2022/05/28 03:45:11;;;;;;;0.60;0.10;;;12.60;99.90;;;;;;5032938;28;20926;-68
2022/05/28 03:47:39;;;;;;;0.60;0.10;;;12.70;99.90;;;;;;5032434;28;20486;-70
2022/05/28 03:50:08;;;;;;;0.60;0.20;;;12.80;99.90;;;;;;5032936;28;20491;-69
2022/05/28 03:52:36;;;;;;;1.03;0.93;;;12.80;99.90;;;;;;5047481;28;20451;-69
2022/05/28 03:55:06;;;;;;;0.60;0.30;;;12.80;99.90;;;;;;5035383;28;20527;-69
2022/05/28 03:57:34;;;;;;;2.00;0.47;;;12.80;99.90;;;;;;5042956;28;20436;-70
2022/05/28 04:00:03;;;;;;;0.60;0.20;;;12.70;99.90;;;;;;5040727;28;20889;-69
2022/05/28 04:02:31;;;;;;;0.60;0.10;;;12.50;99.90;;;;;;5041088;28;21012;-70
2022/05/28 04:04:59;;;;;;;0.60;0.10;;;12.40;99.90;;;;;;5042363;28;20442;-70
2022/05/28 04:07:27;;;;;;;0.70;0.17;;;12.50;99.90;;;;;;5043183;28;20464;-68
2022/05/28 04:09:55;;;;;;;0.60;0.10;;;12.40;99.90;;;;;;5041324;28;20804;-70
2022/05/28 04:12:24;;;;;;;0.60;0.10;;;12.40;99.90;;;;;;5040801;28;20444;-70
2022/05/28 04:14:52;;;;;;;0.60;0.10;;;12.50;99.90;;;;;;5038222;28;20474;-69
2022/05/28 04:17:20;;;;;;;0.60;0.10;;;12.50;99.90;;;;;;5041427;28;20444;-70
2022/05/28 04:19:48;;;;;;;0.60;0.10;;;12.60;99.90;;;;;;5040555;28;20467;-70
2022/05/28 04:22:16;;;;;;;0.60;0.10;;;12.50;99.90;;;;;;5045528;28;20478;-71
2022/05/28 04:24:44;;;;;;;0.60;0.10;;;12.40;99.90;;;;;;5041606;28;20533;-69
2022/05/28 04:27:12;;;;;;;0.60;0.10;;;12.40;99.90;;;;;;5043070;28;20464;-69
2022/05/28 04:29:41;;;;;;;1.00;0.50;;;12.40;99.90;;;;;;5038140;28;20555;-68
2022/05/28 04:32:09;;;;;;;0.60;0.10;;;12.40;99.90;;;;;;5040947;28;20449;-69
2022/05/28 04:34:37;;;;;;;0.60;0.10;;;12.40;99.90;;;;;;5040859;28;20448;-69
2022/05/28 04:37:05;;;;;;;0.60;0.10;;;12.40;99.90;;;;;;5042547;28;20840;-70
2022/05/28 04:39:33;;;;;;;0.60;0.20;;;12.40;99.90;;;;;;5036345;28;20979;-69
2022/05/28 04:42:01;;;;;;;0.60;0.13;;;12.50;99.90;;;;;;5038187;28;20473;-69
2022/05/28 04:44:29;;;;;;;0.60;0.10;;;12.50;99.90;;;;;;5036779;28;20444;-70
2022/05/28 04:46:58;;;;;;;0.60;0.23;;;12.50;99.90;;;;;;5041816;28;20444;-69
2022/05/28 04:49:26;;;;;;;0.60;0.10;;;12.50;99.90;;;;;;5039739;28;20493;-68
2022/05/28 04:51:54;;;;;;;0.70;0.60;;;12.50;99.90;;;;;;5041990;28;20825;-69
2022/05/28 04:54:22;;;;;;;0.60;0.10;;;12.50;99.90;;;;;;5040097;28;20974;-69
2022/05/28 04:56:50;;;;;;;0.60;0.10;;;12.50;99.90;;;;;;5040268;28;20468;-68
2022/05/28 04:59:18;;;;;;;0.60;0.10;;;12.50;99.90;;;;;;5044277;28;20985;-69
2022/05/28 05:01:46;;;;;;;1.30;0.73;;;12.60;99.90;;;;;;5040700;28;20481;-70
2022/05/28 05:04:15;;;;;;;0.60;0.20;;;12.60;99.90;;;;;;5049140;28;20467;-70
2022/05/28 05:06:43;;;;;;;0.60;0.30;;;12.50;99.90;;;;;;5052337;28;20458;-70
2022/05/28 05:09:11;;;;;;;0.60;0.10;;;12.60;99.90;;;;;;5038280;28;20471;-70
2022/05/28 05:11:39;;;;;;;0.60;0.10;;;12.60;99.90;;;;;;5034251;28;20921;-70
2022/05/28 05:14:07;;;;;;;0.60;0.10;;;12.60;99.90;;;;;;5034200;28;20442;-69
2022/05/28 05:16:35;;;;;;;2.10;0.57;;;12.50;99.90;;;;;;5033512;28;20447;-69
2022/05/28 05:19:03;;;;;;;0.60;0.10;;;12.50;99.90;;;;;;5033698;28;20538;-69
2022/05/28 05:21:32;;;;;;;0.60;0.10;;;12.50;99.90;;;;;;5041574;28;20474;-69
2022/05/28 05:24:03;;;;;;;0.60;0.30;;;12.60;99.90;;;;;;5044548;28;20454;-69
2022/05/28 05:26:31;;;;;;;0.60;0.20;;;12.60;99.90;;;;;;5046054;28;20439;-68
2022/05/28 05:28:59;;;;;;;0.60;0.10;;;12.50;99.90;;;;;;5051478;28;20499;-69
2022/05/28 05:31:27;;;;;;;0.60;0.10;;;;;;;;;;5053486;28;20802;-72
2022/05/28 05:33:55;;;;;;;0.60;0.10;;;12.60;99.90;;;;;;5052509;28;20450;-69
2022/05/28 05:36:23;;;;;;;0.80;0.40;;;12.60;99.90;;;;;;5050337;28;20443;-70
2022/05/28 05:38:52;;;;;;;0.60;0.20;;;12.70;99.90;;;;;;5037209;28;20473;-71
2022/05/28 05:41:20;;;;;;;0.60;0.10;;;14.60;99.90;;;;;;5031903;28;20467;-69
2022/05/28 05:43:48;;;;;;;0.60;0.20;;;12.70;99.90;;;;;;5031309;28;20940;-70
2022/05/28 05:46:16;;;;;;;0.60;0.10;;;12.90;99.90;;;;;;5030394;28;20556;-70
2022/05/28 05:48:45;;;;;;;0.60;0.10;;;12.90;99.90;;;;;;5043960;28;20554;-69
2022/05/28 05:51:14;;;;;;;0.80;0.30;;;13.00;99.90;;;;;;5050982;28;20450;-69
2022/05/28 05:53:43;;;;;;;0.70;0.30;;;12.90;99.90;;;;;;5051385;28;20467;-68
2022/05/28 05:56:12;;;;;;;1.17;0.33;;;12.80;99.90;;;;;;5050690;28;20447;-70
2022/05/28 05:58:41;;;;;;;0.60;0.10;;;12.70;99.90;;;;;;5038769;28;20473;-69
2022/05/28 06:01:09;;;;;;;0.67;0.20;;;12.80;99.90;;;;;;5041197;28;20448;-69
2022/05/28 06:03:38;;;;;;;0.60;0.10;;;12.80;99.90;;;;;;5050784;28;20474;-70
2022/05/28 06:06:07;;;;;;;0.60;0.10;;;12.80;99.90;;;;;;5050343;28;20498;-71
2022/05/28 06:08:34;;;;;;;0.60;0.10;;;12.90;99.90;;;;;;5050382;28;20584;-71
2022/05/28 06:11:02;;;;;;;0.60;0.20;;;13.00;99.90;;;;;;5050779;28;20447;-70
2022/05/28 06:13:32;;;;;;;0.70;0.27;;;13.10;99.90;;;;;;5051025;28;20454;-68
2022/05/28 06:16:00;;;;;;;6.70;0.47;;;13.20;99.90;;;;;;5046191;28;20477;-70
2022/05/28 06:18:28;;;;;;;0.60;0.20;;;13.30;99.90;;;;;;5035037;28;20474;-70
2022/05/28 06:20:56;;;;;;;0.80;0.33;;;13.30;99.90;;;;;;5034670;28;20447;-69
2022/05/28 06:23:24;;;;;;;0.70;0.30;;;13.30;99.90;;;;;;5034899;28;20569;-69
2022/05/28 06:25:52;;;;;;;0.60;0.10;;;13.40;99.90;;;;;;5034288;28;20454;-71
2022/05/28 06:28:21;;;;;;;0.60;0.30;;;13.50;99.90;;;;;;5052032;28;20541;-69
2022/05/28 06:30:51;;;;;;;3.07;0.60;;;13.50;99.90;;;;;;5055258;28;20541;-68
2022/05/28 06:33:20;;;;;;;0.60;0.10;;;13.50;99.90;;;;;;5055552;28;20955;-69
2022/05/28 06:35:48;;;;;;;0.60;0.20;;;13.50;99.90;;;;;;5055165;28;20887;-70
2022/05/28 06:38:16;;;;;;;0.60;0.10;;;13.40;99.90;;;;;;5050426;28;20466;-70
2022/05/28 06:40:44;;;;;;;1.77;0.50;;;13.40;99.90;;;;;;5054343;28;20454;-69
2022/05/28 06:43:12;;;;;;;10.23;5.10;;;13.40;99.90;;;;;;5054154;28;20823;-70
2022/05/28 06:45:40;;;;;;;2.70;0.50;;;13.50;99.90;;;;;;5054452;28;20504;-69
2022/05/28 06:48:09;;;;;;;0.60;0.10;;;13.60;99.90;;;;;;5048186;28;20555;-70
2022/05/28 06:53:23;;;;;;;0.60;0.10;;;13.60;99.90;;;;;;5035533;28;20929;-70
2022/05/28 06:55:51;;;;;;;0.70;0.30;;;13.70;99.90;;;;;;5035283;28;20451;-70
2022/05/28 06:58:19;;;;;;;0.60;0.20;;;13.70;99.90;;;;;;5042885;28;21012;-70
2022/05/28 07:00:47;;;;;;;0.67;0.27;;;13.60;99.90;;;;;;5047864;28;20439;-72
2022/05/28 07:03:20;;;;;;;4.00;1.13;;;13.50;99.90;;;;;;5036689;28;20578;-70
2022/05/28 07:05:49;;;;;;;0.60;0.20;;;13.60;99.90;;;;;;5035797;28;20447;-69
2022/05/28 07:08:17;;;;;;;86.33;2.53;;;13.60;99.90;;;;;;5041721;28;20478;-69
2022/05/28 07:10:48;;;;;;;0.60;0.20;;;13.60;99.90;;;;;;5055424;28;20541;-71
2022/05/28 07:13:16;;;;;;;0.60;0.10;;;13.70;99.90;;;;;;5054608;28;20450;-69
2022/05/28 07:15:44;;;;;;;0.60;0.10;;;13.80;99.90;;;;;;5057605;28;20446;-70
2022/05/28 07:18:13;;;;;;;0.67;0.27;;;14.00;99.90;;;;;;5052549;28;20494;-70
2022/05/28 07:20:43;;;;;;;1.63;1.53;;;14.00;99.90;;;;;;5038098;28;20449;-69
2022/05/28 07:23:13;;;;;;;0.60;0.10;;;14.10;99.90;;;;;;5034689;28;20500;-70
2022/05/28 07:25:42;;;;;;;0.60;0.10;;;14.10;99.90;;;;;;5040313;28;20464;-69
2022/05/28 07:28:27;;;;;;;0.60;0.10;;;14.40;99.90;;;;;;5048566;28;20473;-69
2022/05/28 07:30:57;;;;;;;0.60;0.20;;;14.40;99.90;;;;;;5051374;28;20825;-70
2022/05/28 07:33:25;;;;;;;0.60;0.10;;;14.50;99.90;;;;;;5045521;28;20925;-69
2022/05/28 07:35:56;;;;;;;0.60;0.10;;;14.60;99.90;;;;;;5049551;28;20456;-71
2022/05/28 07:38:25;;;;;;;0.60;0.10;;;14.80;99.90;;;;;;5046977;28;20482;-70
2022/05/28 07:40:54;;;;;;;0.60;0.10;;;14.80;99.90;;;;;;5036309;28;20816;-69
2022/05/28 07:43:22;;;;;;;0.60;0.10;;;14.80;99.90;;;;;;5047590;28;20482;-72
2022/05/28 07:45:51;;;;;;;0.60;0.20;;;15.10;99.90;;;;;;5043624;28;20450;-69
2022/05/28 07:48:19;;;;;;;0.60;0.10;;;15.20;99.90;;;;;;5044449;28;20485;-71
2022/05/28 07:50:47;;;;;;;0.60;0.10;;;15.20;99.90;;;;;;5047714;28;20529;-71
2022/05/28 07:53:17;;;;;;;0.60;0.10;;;15.30;99.90;;;;;;5042680;28;20962;-71
2022/05/28 07:55:45;;;;;;;0.60;0.10;;;15.40;99.90;;;;;;5047915;28;20496;-71
2022/05/28 07:58:15;;;;;;;0.60;0.10;;;15.50;99.90;;;;;;5049725;28;20496;-70
2022/05/28 08:00:45;;;;;;;0.60;0.10;;;15.50;99.90;;;;;;5033415;28;20967;-69
2022/05/28 08:03:14;;;;;;;0.60;0.10;;;15.50;99.90;;;;;;5032987;28;20479;-69
2022/05/28 08:05:45;;;;;;;0.60;0.10;;;15.60;99.90;;;;;;5033065;28;21075;-71
2022/05/28 08:08:13;;;;;;;0.60;0.10;;;15.50;99.90;;;;;;5037463;28;20764;-70
2022/05/28 08:10:43;;;;;;;0.60;0.10;;;15.50;99.90;;;;;;5049079;28;20458;-71
2022/05/28 08:13:14;;;;;;;0.60;0.10;;;15.60;99.90;;;;;;5042475;28;20459;-70
2022/05/28 08:15:45;;;;;;;0.60;0.10;;;15.70;99.90;;;;;;5037728;28;20476;-69
2022/05/28 08:18:16;;;;;;;0.60;0.10;;;15.80;99.90;;;;;;5041843;28;21015;-70
2022/05/28 08:23:29;;;;;;;0.60;0.10;;;15.80;99.90;;;;;;5038523;28;20507;-71
2022/05/28 08:25:58;;;;;;;0.60;0.20;;;15.80;99.90;;;;;;5044740;28;20447;-71
2022/05/28 08:32:18;;;;;;;0.60;0.13;;;15.90;99.90;;;;;;5019963;28;20461;-71
2022/05/28 08:34:46;;;;;;;0.60;0.10;;;16.00;99.90;;;;;;5052146;28;20431;-72
2022/05/28 08:37:14;;;;;;;1.07;0.97;;;16.00;99.90;;;;;;5051632;28;20441;-70
2022/05/28 08:39:41;;;;;;;0.60;0.10;;;16.00;99.90;;;;;;5040624;28;20545;-72
2022/05/28 08:42:14;;;;;;;0.60;0.10;;;15.90;99.90;;;;;;5032981;28;20465;-70
2022/05/28 08:44:44;;;;;;;0.60;0.20;;;16.00;99.90;;;;;;5051916;28;20485;-72
2022/05/28 08:47:21;;;;;;;0.60;0.17;;;16.00;99.90;;;;;;5052960;28;20453;-72
2022/05/28 08:49:51;;;;;;;0.60;0.13;;;16.10;99.90;;;;;;5051458;28;20470;-71
2022/05/28 08:52:23;;;;;;;0.60;0.10;;;16.10;99.90;;;;;;5052100;28;20521;-71
2022/05/28 08:55:00;;;;;;;0.60;0.10;;;16.10;99.90;;;;;;5051976;28;20468;-70
2022/05/28 08:57:37;;;;;;;0.60;0.10;;;16.10;99.90;;;;;;5052212;28;20556;-72
2022/05/28 09:00:10;;;;;;;0.60;0.20;;;16.10;99.90;;;;;;5047616;28;20935;-71
2022/05/28 09:02:41;;;;;;;0.60;0.10;;;16.30;99.90;;;;;;5052292;28;20449;-70
2022/05/28 09:05:21;;;;;;;0.60;0.10;;;16.30;99.90;;;;;;5053655;28;20974;-70
2022/05/28 09:07:49;;;;;;;0.60;0.10;;;16.60;99.90;;;;;;5053219;28;20575;-74
2022/05/28 09:10:17;;;;;;;0.60;0.10;;;16.60;99.90;;;;;;5051905;28;20528;-75
2022/05/28 09:12:54;;;;;;;0.60;0.10;;;16.60;99.90;;;;;;5045870;28;20804;-69
2022/05/28 09:15:23;;;;;;;0.60;0.10;;;16.70;99.90;;;;;;5052993;28;20806;-70
2022/05/28 09:17:57;;;;;;;0.60;0.10;;;16.60;99.90;;;;;;5052777;28;20470;-72
2022/05/28 09:20:32;;;;;;;0.60;0.10;;;16.60;99.90;;;;;;5046975;28;20453;-71
2022/05/28 09:23:00;;;;;;;0.60;0.20;;;16.70;99.90;;;;;;5051560;28;20440;-71
2022/05/28 09:25:33;;;;;;;1.23;1.23;;;16.80;99.90;;;;;;5051137;28;20478;-71
2022/05/28 09:28:19;;;;;;;0.60;0.10;;;16.90;99.90;;;;;;5044065;28;20447;-71
2022/05/28 09:30:56;;;;;;;0.60;0.10;;;17.00;99.90;;;;;;5041205;28;20532;-71
2022/05/28 09:33:46;;;;;;;0.60;0.10;;;17.10;99.90;;;;;;5036261;28;20443;-70
2022/05/28 09:36:30;;;;;;;0.60;0.10;;;17.20;99.90;;;;;;5046412;28;20526;-70
2022/05/28 09:39:05;;;;;;;0.60;0.10;;;17.30;99.90;;;;;;5052828;28;20477;-71
2022/05/28 09:41:50;;;;;;;0.60;0.17;;;17.30;99.90;;;;;;5041736;28;20457;-71
2022/05/28 09:44:29;;;;;;;0.60;0.10;;;17.10;99.90;;;;;;5051501;28;20485;-72
2022/05/28 09:47:07;;;;;;;0.60;0.10;;;17.10;99.90;;;;;;5051967;28;20439;-70
2022/05/28 09:49:46;;;;;;;0.60;0.10;;;17.00;99.90;;;;;;5046884;28;20504;-70
2022/05/28 09:52:22;;;;;;;0.60;0.13;;;17.00;99.90;;;;;;5032660;28;20466;-71
2022/05/28 09:54:49;;;;;;;0.60;0.10;;;17.00;99.90;;;;;;5037157;28;20435;-71
2022/05/28 09:57:26;;;;;;;0.60;0.10;;;17.10;99.90;;;;;;5045979;28;20462;-71
2022/05/28 10:00:00;;;;;;;0.60;0.10;;;17.10;99.90;;;;;;5033900;28;20471;-71
2022/05/28 10:02:30;;;;;;;0.60;0.10;;;17.10;99.90;;;;;;5037600;28;20443;-71
2022/05/28 10:05:04;;;;;;;0.60;0.10;;;17.00;99.90;;;;;;5033838;28;20472;-71
2022/05/28 10:07:35;;;;;;;0.60;0.20;;;17.00;99.90;;;;;;5043643;28;20544;-70
2022/05/28 10:10:15;;;;;;;0.60;0.10;;;17.10;99.90;;;;;;5046961;28;20481;-71
2022/05/28 10:12:44;;;;;;;0.60;0.10;;;17.20;99.90;;;;;;5033889;28;20459;-72
2022/05/28 10:15:18;;;;;;;0.60;0.10;;;17.20;99.90;;;;;;5050861;28;20451;-70
2022/05/28 10:17:55;;;;;;;0.60;0.20;;;17.20;99.90;;;;;;5050339;28;21102;-71
2022/05/28 10:20:23;;;;;;;0.60;0.10;;;17.20;99.90;;;;;;5051731;28;20454;-73
2022/05/28 10:22:52;;;;;;;0.60;0.10;;;17.20;99.90;;;;;;5052080;28;20816;-70
2022/05/28 10:25:30;;;;;;;0.60;0.20;;;17.20;99.90;;;;;;5050982;28;20489;-70
2022/05/28 10:27:59;;;;;;;0.60;0.10;;;17.20;99.90;;;;;;5048108;28;20939;-71
2022/05/28 10:30:33;;;;;;;0.60;0.30;;;17.20;99.90;;;;;;5033825;28;20804;-71
2022/05/28 10:33:04;;;;;;;0.60;0.20;;;17.30;99.90;;;;;;5045901;28;20485;-71
2022/05/28 10:35:32;;;;;;;0.60;0.10;;;17.50;99.90;;;;;;5052802;28;20445;-70
2022/05/28 10:38:07;;;;;;;0.60;0.20;;;17.90;99.90;;;;;;5049872;28;20464;-71
2022/05/28 10:40:47;;;;;;;0.60;0.20;;;18.00;99.90;;;;;;5041832;28;20462;-71
2022/05/28 10:43:25;;;;;;;0.60;0.10;;;18.00;99.90;;;;;;5039858;28;20458;-72
2022/05/28 10:46:03;;;;;;;0.60;0.10;;;18.10;99.90;;;;;;5048422;28;20567;-71
2022/05/28 10:48:35;;;;;;;0.60;0.10;;;18.20;99.90;;;;;;5040088;28;20538;-72
2022/05/28 10:51:12;;;;;;;0.60;0.10;;;18.20;99.90;;;;;;5053164;28;20780;-72
2022/05/28 10:54:09;;;;;;;0.60;0.10;;;17.90;99.90;;;;;;5039060;28;20469;-72
2022/05/28 10:56:48;;;;;;;0.60;0.10;;;17.90;99.90;;;;;;5037468;28;20443;-73
2022/05/28 10:59:35;;;;;;;0.60;0.10;;;17.90;99.90;;;;;;5044714;28;20908;-73
2022/05/28 11:02:17;;;;;;;0.60;0.10;;;17.90;99.90;;;;;;5050572;28;20442;-72
2022/05/28 11:05:05;;;;;;;0.60;0.10;;;18.20;99.90;;;;;;5054391;28;20470;-70
2022/05/28 11:07:51;;;;;;;0.60;0.20;;;18.30;99.90;;;;;;5055041;28;20442;-72
2022/05/28 11:10:46;;;;;;;0.60;0.10;;;18.40;99.90;;;;;;5040880;28;20469;-70
2022/05/28 11:13:25;;;;;;;0.60;0.10;;;18.30;99.90;;;;;;5035286;28;21311;-71
2022/05/28 11:16:30;;;;;;;0.60;0.10;;;18.30;99.90;;;;;;5052953;28;20461;-71
2022/05/28 11:19:22;;;;;;;0.60;0.10;;;18.10;99.90;;;;;;5051758;28;20541;-72
2022/05/28 11:22:04;;;;;;;0.60;0.10;;;18.00;99.90;;;;;;5034766;28;20540;-71
2022/05/28 11:24:48;;;;;;;0.60;0.17;;;17.90;99.90;;;;;;5035358;28;20447;-71
2022/05/28 11:27:29;;;;;;;0.60;0.10;;;18.10;99.90;;;;;;5044873;28;20446;-72
2022/05/28 11:30:05;;;;;;;0.60;0.10;;;18.10;99.90;;;;;;5048130;28;20462;-71
2022/05/28 11:32:36;;;;;;;0.60;0.10;;;18.20;99.90;;;;;;5042369;28;20450;-73
2022/05/28 11:35:11;;;;;;;0.60;0.10;;;18.50;99.90;;;;;;5089660;28;20452;-71
2022/05/28 11:37:42;;;;;;;0.60;0.13;;;18.50;99.90;;;;;;5106964;28;20828;-72
2022/05/28 11:40:20;;;;;;;0.60;0.10;;;18.50;99.90;;;;;;5102167;28;20513;-72
2022/05/28 11:42:53;;;;;;;0.60;0.27;;;18.50;99.90;;;;;;5096345;28;20440;-72
2022/05/28 11:45:26;;;;;;;0.60;0.10;;;18.30;99.90;;;;;;5104214;28;20484;-72
2022/05/28 11:47:58;;;;;;;0.60;0.10;;;18.20;99.90;;;;;;5111315;28;20599;-72
2022/05/28 11:53:30;;;;;;;0.60;0.13;;;18.10;99.90;;;;;;5098409;28;20455;-72
2022/05/28 11:56:05;;;;;;;0.60;0.10;;;18.00;99.90;;;;;;5106354;28;20438;-71
2022/05/28 11:58:36;;;;;;;0.60;0.10;;;18.00;99.90;;;;;;5098158;28;20459;-72
2022/05/28 12:01:10;;;;;;;0.60;0.20;;;18.00;99.90;;;;;;5096730;28;20567;-71
2022/05/28 12:03:40;;;;;;;0.60;0.20;;;18.00;99.90;;;;;;5097252;28;20458;-72
2022/05/28 12:06:20;;;;;;;0.60;0.20;;;18.00;99.90;;;;;;5087291;28;20873;-72
2022/05/28 12:08:57;;;;;;;0.60;0.10;;;18.00;99.90;;;;;;5093866;28;20471;-73
2022/05/28 12:11:39;;;;;;;0.60;0.10;;;18.00;99.90;;;;;;5094421;28;20783;-72
2022/05/28 12:14:19;;;;;;;0.60;0.20;;;18.00;99.90;;;;;;5093784;28;20835;-73
2022/05/28 12:17:09;;;;;;;0.60;0.20;;;18.00;99.90;;;;;;5095253;28;20447;-73
2022/05/28 12:19:46;;;;;;;0.60;0.10;;;18.10;99.90;;;;;;5073076;28;20468;-71
2022/05/28 12:22:28;;;;;;;0.60;0.13;;;18.10;99.90;;;;;;5073721;28;20449;-71
2022/05/28 12:24:58;;;;;;;0.60;0.10;;;18.10;99.90;;;;;;5074135;28;20453;-71
2022/05/28 12:27:38;;;;;;;0.60;0.10;;;18.10;99.90;;;;;;5078807;28;20531;-71
2022/05/28 12:30:09;;;;;;;0.60;0.20;;;18.10;99.90;;;;;;5093405;28;20464;-72
2022/05/28 12:32:47;;;;;;;0.60;0.10;;;18.10;99.90;;;;;;5090828;28;20479;-72
2022/05/28 12:35:32;;;;;;;0.60;0.10;;;18.10;99.90;;;;;;5092475;28;20443;-72
2022/05/28 12:38:14;;;;;;;0.60;0.10;;;18.60;99.90;;;;;;5093321;28;20820;-72
2022/05/28 12:40:49;;;;;;;0.60;0.13;;;18.60;99.90;;;;;;5093174;28;20454;-72
2022/05/28 12:43:19;;;;;;;0.60;0.10;;;18.80;99.90;;;;;;5093102;28;20530;-72
2022/05/28 12:45:49;;;;;;;0.60;0.10;;;18.80;99.90;;;;;;5092482;28;20476;-72
2022/05/28 12:48:22;;;;;;;0.60;0.20;;;18.70;99.90;;;;;;5093156;28;20618;-72
2022/05/28 12:51:08;;;;;;;0.60;0.10;;;18.70;99.90;;;;;;5093730;28;20544;-71
2022/05/28 12:53:50;;;;;;;0.60;0.20;;;18.50;99.90;;;;;;5087222;28;20435;-70
2022/05/28 12:56:40;;;;;;;0.60;0.10;;;18.30;99.90;;;;;;5093202;28;20444;-71
2022/05/28 12:59:11;;;;;;;0.60;0.20;;;18.30;99.90;;;;;;5092867;28;20994;-70
2022/05/28 13:01:54;;;;;;;0.60;0.10;;;18.30;99.90;;;;;;5092407;28;20963;-71
2022/05/28 13:04:23;;;;;;;0.60;0.10;;;18.30;99.90;;;;;;5092252;28;20555;-74
2022/05/28 13:06:54;;;;;;;0.60;0.10;;;18.40;99.90;;;;;;5092078;28;20542;-71
2022/05/28 13:09:27;;;;;;;0.90;0.47;;;18.80;99.90;;;;;;5092920;28;20467;-71
2022/05/28 13:11:59;;;;;;;0.70;0.30;;;18.90;99.90;;;;;;5091790;28;20512;-72
2022/05/28 13:14:52;;;;;;;0.60;0.10;;;18.90;99.90;;;;;;5078810;28;20448;-72
2022/05/28 13:17:39;;;;;;;0.60;0.13;;;19.00;99.90;;;;;;5051560;28;20451;-71
2022/05/28 13:20:24;;;;;;;0.60;0.10;;;19.10;99.90;;;;;;5096287;28;20469;-71
2022/05/28 13:23:11;;;;;;;0.60;0.10;;;19.50;99.90;;;;;;5095752;28;20447;-72
2022/05/28 13:26:00;;;;;;;0.60;0.10;;;19.50;99.90;;;;;;5074961;28;20512;-72